createdAt,value
2019-04-06T00:00:52.460Z,99337
2019-04-06T00:03:21.338Z,99334
2019-04-06T00:05:50.181Z,99328
2019-04-06T00:08:19.779Z,99333
2019-04-06T00:10:48.600Z,99333
2019-04-06T00:13:17.444Z,99334
2019-04-06T00:15:46.279Z,99328
2019-04-06T00:18:15.152Z,99327
2019-04-06T00:20:44.025Z,99323
2019-04-06T00:23:12.827Z,99322
2019-04-06T00:25:44.691Z,99325
2019-04-06T00:28:10.524Z,99326
2019-04-06T00:30:41.085Z,99318
2019-04-06T00:33:09.958Z,99315
2019-04-06T00:35:38.802Z,99305
2019-04-06T00:38:07.641Z,99306
2019-04-06T00:40:36.476Z,99313
2019-04-06T00:43:05.354Z,99308
2019-04-06T00:45:34.157Z,99315
2019-04-06T00:48:03.027Z,99309
2019-04-06T00:50:31.845Z,99313
2019-04-06T00:53:00.714Z,99306
2019-04-06T00:55:29.598Z,99291
2019-04-06T00:57:58.409Z,99305
2019-04-06T01:00:27.261Z,99295
2019-04-06T01:02:56.124Z,99300
2019-04-06T01:05:24.971Z,99295
2019-04-06T01:07:53.807Z,99300
2019-04-06T01:10:22.675Z,99305
2019-04-06T01:12:51.512Z,99298
2019-04-06T01:15:20.367Z,99296
2019-04-06T01:17:49.204Z,99292
2019-04-06T01:20:18.053Z,99300
2019-04-06T01:22:46.892Z,99296
2019-04-06T01:25:16.619Z,99297
2019-04-06T01:27:45.335Z,99293
2019-04-06T01:30:14.186Z,99298
2019-04-06T01:32:43.033Z,99297
2019-04-06T01:35:11.885Z,99305
2019-04-06T01:37:40.827Z,99309
2019-04-06T01:40:10.351Z,99307
2019-04-06T01:42:39.188Z,99299
2019-04-06T01:45:08.038Z,99304
2019-04-06T01:47:36.920Z,99293
2019-04-06T01:50:05.735Z,99307
2019-04-06T01:52:34.590Z,99296
2019-04-06T01:55:03.431Z,99296
2019-04-06T01:57:32.274Z,99296
2019-04-06T02:00:01.127Z,99293
2019-04-06T02:02:31.831Z,99294
2019-04-06T02:05:00.663Z,99283
2019-04-06T02:07:29.518Z,99290
2019-04-06T02:09:58.352Z,99291
2019-04-06T02:12:27.194Z,99289
2019-04-06T02:14:56.053Z,99289
2019-04-06T02:17:24.893Z,99289
2019-04-06T02:19:53.755Z,99297
2019-04-06T02:22:22.608Z,99287
2019-04-06T02:24:51.461Z,99288
2019-04-06T02:27:20.299Z,99290
2019-04-06T02:29:49.158Z,99291
2019-04-06T02:32:22.513Z,99289
2019-04-06T02:34:51.397Z,99289
2019-04-06T02:37:22.958Z,99285
2019-04-06T02:39:57.367Z,99292
2019-04-06T02:42:26.964Z,99296
2019-04-06T02:44:55.915Z,99293
2019-04-06T02:47:25.409Z,99292
2019-04-06T02:49:54.309Z,99304
2019-04-06T02:52:23.104Z,99307
2019-04-06T02:54:52.000Z,99304
2019-04-06T02:57:20.813Z,99300
2019-04-06T02:59:49.642Z,99298
2019-04-06T03:02:18.493Z,99307
2019-04-06T03:04:47.351Z,99306
2019-04-06T03:07:16.200Z,99300
2019-04-06T03:09:45.050Z,99296
2019-04-06T03:12:13.938Z,99298
2019-04-06T03:14:44.586Z,99293
2019-04-06T03:17:11.646Z,99297
2019-04-06T03:19:40.738Z,99298
2019-04-06T03:22:09.458Z,99295
2019-04-06T03:24:38.310Z,99292
2019-04-06T03:27:07.206Z,99293
2019-04-06T03:29:35.992Z,99289
2019-04-06T03:32:04.839Z,99291
2019-04-06T03:34:33.728Z,99299
2019-04-06T03:37:02.555Z,99292
2019-04-06T03:39:31.406Z,99291
2019-04-06T03:42:00.259Z,99297
2019-04-06T03:44:29.094Z,99290
2019-04-06T03:46:57.986Z,99293
2019-04-06T03:49:26.772Z,99295
2019-04-06T03:51:55.629Z,99297
2019-04-06T03:54:24.488Z,99300
2019-04-06T03:56:53.354Z,99304
2019-04-06T03:59:22.197Z,99307
2019-04-06T04:01:51.057Z,99311
2019-04-06T04:04:19.913Z,99300
2019-04-06T04:06:48.749Z,99311
2019-04-06T04:09:17.594Z,99310
2019-04-06T04:11:46.439Z,99308
2019-04-06T04:14:15.286Z,99308
2019-04-06T04:16:44.120Z,99306
2019-04-06T04:19:12.963Z,99309
2019-04-06T04:21:41.816Z,99299
2019-04-06T04:24:10.669Z,99299
2019-04-06T04:26:39.669Z,99313
2019-04-06T04:29:08.358Z,99311
2019-04-06T04:31:37.202Z,99310
2019-04-06T04:34:19.311Z,99298
2019-04-06T04:36:48.159Z,99311
2019-04-06T04:39:16.990Z,99308
2019-04-06T04:41:45.918Z,99307
2019-04-06T04:44:15.598Z,99315
2019-04-06T04:46:44.495Z,99320
2019-04-06T04:49:13.919Z,99314
2019-04-06T04:51:42.717Z,99313
2019-04-06T04:54:11.559Z,99321
2019-04-06T04:56:40.397Z,99322
2019-04-06T04:59:09.244Z,99320
2019-04-06T05:01:38.371Z,99326
2019-04-06T05:04:06.942Z,99323
2019-04-06T05:06:35.776Z,99332
2019-04-06T05:09:04.634Z,99338
2019-04-06T05:11:33.474Z,99332
2019-04-06T05:14:20.248Z,99333
2019-04-06T05:16:48.994Z,99335
2019-04-06T05:19:17.843Z,99346
2019-04-06T05:21:47.414Z,99344
2019-04-06T05:24:16.264Z,99348
2019-04-06T05:26:45.109Z,99340
2019-04-06T05:29:13.938Z,99343
2019-04-06T05:31:42.770Z,99350
2019-04-06T05:34:11.610Z,99344
2019-04-06T05:36:40.458Z,99353
2019-04-06T05:39:09.287Z,99359
2019-04-06T05:41:38.130Z,99358
2019-04-06T05:44:07.005Z,99360
2019-04-06T05:46:35.815Z,99355
2019-04-06T05:49:04.667Z,99350
2019-04-06T05:51:33.504Z,99360
2019-04-06T05:54:02.352Z,99365
2019-04-06T05:56:31.196Z,99369
2019-04-06T05:59:00.898Z,99377
2019-04-06T06:01:29.630Z,99370
2019-04-06T06:03:58.592Z,99371
2019-04-06T06:06:27.448Z,99378
2019-04-06T06:08:56.984Z,99381
2019-04-06T06:11:25.828Z,99371
2019-04-06T06:13:54.663Z,99371
2019-04-06T06:16:23.530Z,99378
2019-04-06T06:18:52.338Z,99369
2019-04-06T06:21:21.186Z,99376
2019-04-06T06:23:50.036Z,99377
2019-04-06T06:26:18.859Z,99380
2019-04-06T06:28:47.691Z,99384
2019-04-06T06:31:17.304Z,99385
2019-04-06T06:33:46.102Z,99375
2019-04-06T06:36:15.820Z,99387
2019-04-06T06:38:45.374Z,99382
2019-04-06T06:41:14.336Z,99395
2019-04-06T06:43:45.123Z,99390
2019-04-06T06:46:11.898Z,99390
2019-04-06T06:48:42.982Z,99387
2019-04-06T06:51:09.817Z,99391
2019-04-06T06:53:38.435Z,99392
2019-04-06T06:56:08.022Z,99388
2019-04-06T06:58:37.008Z,99400
2019-04-06T07:01:05.712Z,99390
2019-04-06T07:03:34.548Z,99391
2019-04-06T07:06:03.397Z,99395
2019-04-06T07:08:32.242Z,99391
2019-04-06T07:11:01.076Z,99393
2019-04-06T07:13:29.931Z,99386
2019-04-06T07:15:58.782Z,99388
2019-04-06T07:18:27.622Z,99390
2019-04-06T07:20:56.459Z,99393
2019-04-06T07:23:25.290Z,99392
2019-04-06T07:25:58.696Z,99395
2019-04-06T07:28:22.986Z,99386
2019-04-06T07:30:51.873Z,99385
2019-04-06T07:33:20.868Z,99389
2019-04-06T07:35:49.718Z,99388
2019-04-06T07:38:18.574Z,99385
2019-04-06T07:40:48.220Z,99388
2019-04-06T07:43:17.021Z,99390
2019-04-06T07:45:45.848Z,99381
2019-04-06T07:48:15.494Z,99387
2019-04-06T07:50:45.035Z,99388
2019-04-06T07:53:13.869Z,99386
2019-04-06T07:55:42.856Z,99373
2019-04-06T07:58:11.690Z,99373
2019-04-06T08:00:40.514Z,99379
2019-04-06T08:03:09.359Z,99372
2019-04-06T08:05:38.094Z,99371
2019-04-06T08:08:10.286Z,99370
2019-04-06T08:10:39.131Z,99371
2019-04-06T08:13:07.951Z,99369
2019-04-06T08:15:36.801Z,99370
2019-04-06T08:18:05.775Z,99365
2019-04-06T08:20:34.502Z,99352
2019-04-06T08:23:04.080Z,99361
2019-04-06T08:25:32.929Z,99359
2019-04-06T08:28:01.766Z,99352
2019-04-06T08:30:30.723Z,99348
2019-04-06T08:32:59.451Z,99353
2019-04-06T08:35:28.294Z,99340
2019-04-06T08:37:57.159Z,99353
2019-04-06T08:40:26.732Z,99337
2019-04-06T08:42:55.574Z,99348
2019-04-06T08:45:24.425Z,99346
2019-04-06T08:47:53.990Z,99358
2019-04-06T08:50:22.821Z,99353
2019-04-06T08:52:52.469Z,99359
2019-04-06T08:55:21.306Z,99357
2019-04-06T08:57:50.924Z,99357
2019-04-06T09:00:20.520Z,99354
2019-04-06T09:02:50.120Z,99358
2019-04-06T09:05:18.994Z,99354
2019-04-06T09:07:47.818Z,99345
2019-04-06T09:10:16.660Z,99351
2019-04-06T09:12:45.542Z,99348
2019-04-06T09:15:14.370Z,99348
2019-04-06T09:17:43.219Z,99350
2019-04-06T09:20:12.042Z,99347
2019-04-06T09:22:40.885Z,99334
2019-04-06T09:25:09.719Z,99330
2019-04-06T09:27:39.159Z,99326
2019-04-06T09:30:08.834Z,99328
2019-04-06T09:32:37.876Z,99325
2019-04-06T09:35:06.530Z,99315
2019-04-06T09:37:36.112Z,99315
2019-04-06T09:40:05.645Z,99304
2019-04-06T09:42:35.280Z,99297
2019-04-06T09:45:09.494Z,99297
2019-04-06T09:47:39.227Z,99299
2019-04-06T09:50:11.026Z,99289
2019-04-06T09:52:45.457Z,99286
2019-04-06T09:55:20.618Z,99283
2019-04-06T09:57:53.872Z,99286
2019-04-06T10:00:26.538Z,99288
2019-04-06T10:02:55.641Z,99287
2019-04-06T10:05:25.045Z,99284
2019-04-06T10:07:59.804Z,99281
2019-04-06T10:10:28.621Z,99281
2019-04-06T10:12:58.476Z,99279
2019-04-06T10:15:27.389Z,99271
2019-04-06T10:18:00.148Z,99275
2019-04-06T10:20:35.538Z,99274
2019-04-06T10:23:09.989Z,99275
2019-04-06T10:25:40.654Z,99269
2019-04-06T10:28:15.190Z,99276
2019-04-06T10:30:46.868Z,99278
2019-04-06T10:33:22.306Z,99271
2019-04-06T10:35:51.856Z,99270
2019-04-06T10:38:20.728Z,99270
2019-04-06T10:40:53.414Z,99260
2019-04-06T10:43:22.314Z,99260
2019-04-06T10:45:51.190Z,99255
2019-04-06T10:48:20.099Z,99244
2019-04-06T10:50:55.254Z,99243
2019-04-06T10:53:26.074Z,99252
2019-04-06T10:55:54.795Z,99245
2019-04-06T10:58:29.923Z,99239
2019-04-06T11:00:59.620Z,99242
2019-04-06T11:03:34.036Z,99226
2019-04-06T11:06:02.872Z,99240
2019-04-06T11:08:31.689Z,99240
2019-04-06T11:11:03.126Z,99237
2019-04-06T11:13:34.100Z,99246
2019-04-06T11:16:05.690Z,99234
2019-04-06T11:18:36.331Z,99232
2019-04-06T11:21:07.506Z,99223
2019-04-06T11:23:38.145Z,99217
2019-04-06T11:26:07.773Z,99223
2019-04-06T11:28:37.368Z,99225
2019-04-06T11:31:10.251Z,99210
2019-04-06T11:33:44.716Z,99211
2019-04-06T11:36:13.573Z,99205
2019-04-06T11:38:47.147Z,99202
2019-04-06T11:41:17.886Z,99201
2019-04-06T11:43:48.634Z,99206
2019-04-06T11:46:17.639Z,99206
2019-04-06T11:48:46.328Z,99206
2019-04-06T11:51:16.995Z,99212
2019-04-06T11:53:47.819Z,99204
2019-04-06T11:56:17.485Z,99204
2019-04-06T11:58:49.095Z,99202
2019-04-06T12:01:18.824Z,99208
2019-04-06T12:03:53.276Z,99201
2019-04-06T12:06:22.129Z,99205
2019-04-06T12:08:56.883Z,99205
2019-04-06T12:11:25.766Z,99200
2019-04-06T12:13:55.477Z,99203
2019-04-06T12:16:30.020Z,99196
2019-04-06T12:18:58.808Z,99194
2019-04-06T12:21:35.220Z,99195
2019-04-06T12:24:09.164Z,99197
2019-04-06T12:26:40.914Z,99197
2019-04-06T12:29:16.539Z,99193
2019-04-06T12:31:44.878Z,99200
2019-04-06T12:34:14.473Z,99191
2019-04-06T12:36:48.065Z,99200
2019-04-06T12:39:22.541Z,99200
2019-04-06T12:41:51.634Z,99196
2019-04-06T12:44:21.011Z,99196
2019-04-06T12:46:55.437Z,99193
2019-04-06T12:49:25.031Z,99205
2019-04-06T12:51:55.778Z,99206
2019-04-06T12:54:25.101Z,99203
2019-04-06T12:56:56.319Z,99197
2019-04-06T12:59:30.363Z,99202
2019-04-06T13:01:59.193Z,99200
2019-04-06T13:04:29.603Z,99197
2019-04-06T13:06:59.331Z,99194
2019-04-06T13:09:33.899Z,99202
2019-04-06T13:12:04.350Z,99204
2019-04-06T13:14:35.036Z,99203
2019-04-06T13:17:04.631Z,99204
2019-04-06T13:19:37.341Z,99203
2019-04-06T13:22:10.226Z,99200
2019-04-06T13:24:40.665Z,99195
2019-04-06T13:27:12.245Z,99206
2019-04-06T13:29:43.172Z,99189
2019-04-06T13:32:13.475Z,99192
2019-04-06T13:34:42.663Z,99188
2019-04-06T13:37:14.279Z,99188
2019-04-06T13:39:43.105Z,99180
2019-04-06T13:42:11.727Z,99184
2019-04-06T13:44:41.340Z,99195
2019-04-06T13:47:13.481Z,99193
2019-04-06T13:49:47.643Z,99185
2019-04-06T13:52:16.343Z,99180
2019-04-06T13:54:50.750Z,99178
2019-04-06T13:57:20.318Z,99178
2019-04-06T13:59:49.980Z,99176
2019-04-06T14:02:18.727Z,99172
2019-04-06T14:04:53.565Z,99173
2019-04-06T14:07:23.149Z,99180
2019-04-06T14:09:52.093Z,99161
2019-04-06T14:12:21.745Z,99160
2019-04-06T14:14:52.374Z,99156
2019-04-06T14:17:21.209Z,99166
2019-04-06T14:19:55.783Z,99149
2019-04-06T14:22:24.339Z,99149
2019-04-06T14:24:54.082Z,99151
2019-04-06T14:27:28.402Z,99152
2019-04-06T14:30:01.223Z,99160
2019-04-06T14:32:32.535Z,99140
2019-04-06T14:35:07.394Z,99141
2019-04-06T14:37:42.373Z,99137
2019-04-06T14:40:12.993Z,99135
2019-04-06T14:42:47.477Z,99139
2019-04-06T14:45:17.172Z,99144
2019-04-06T14:47:46.014Z,99137
2019-04-06T14:50:15.216Z,99140
2019-04-06T14:52:44.435Z,99136
2019-04-06T14:55:13.305Z,99145
2019-04-06T14:57:47.001Z,99131
2019-04-06T15:00:21.864Z,99130
2019-04-06T15:02:52.914Z,99130
2019-04-06T15:05:23.230Z,99129
2019-04-06T15:07:53.374Z,99137
2019-04-06T15:10:27.049Z,99135
2019-04-06T15:13:02.144Z,99133
2019-04-06T15:15:31.874Z,99122
2019-04-06T15:18:01.492Z,99124
2019-04-06T15:20:30.407Z,99121
2019-04-06T15:23:00.071Z,99117
2019-04-06T15:25:32.614Z,99114
2019-04-06T15:28:02.396Z,99110
2019-04-06T15:30:35.182Z,99112
2019-04-06T15:33:09.966Z,99107
2019-04-06T15:35:41.454Z,99112
2019-04-06T15:38:12.851Z,99105
2019-04-06T15:40:41.998Z,99104
2019-04-06T15:43:18.602Z,99113
2019-04-06T15:45:45.006Z,99102
2019-04-06T15:48:20.571Z,99100
2019-04-06T15:50:54.630Z,99093
2019-04-06T15:53:23.283Z,99092
2019-04-06T15:55:53.238Z,99086
2019-04-06T15:58:27.269Z,99083
2019-04-06T16:01:02.007Z,99079
2019-04-06T16:03:34.518Z,99077
2019-04-06T16:06:04.203Z,99083
2019-04-06T16:08:33.317Z,99073
2019-04-06T16:11:07.985Z,99075
2019-04-06T16:13:36.509Z,99072
2019-04-06T16:16:10.414Z,99071
2019-04-06T16:18:40.907Z,99066
2019-04-06T16:21:14.724Z,99064
2019-04-06T16:23:44.643Z,99063
2019-04-06T16:26:13.229Z,99066
2019-04-06T16:28:42.848Z,99061
2019-04-06T16:31:17.181Z,99061
2019-04-06T16:33:48.821Z,99068
2019-04-06T16:36:19.800Z,99068
2019-04-06T16:38:48.433Z,99069
2019-04-06T16:41:19.867Z,99068
2019-04-06T16:43:51.460Z,99063
2019-04-06T16:46:20.315Z,99063
2019-04-06T16:48:50.792Z,99064
2019-04-06T16:51:26.233Z,99072
2019-04-06T16:53:55.667Z,99076
2019-04-06T16:56:26.077Z,99063
2019-04-06T16:59:01.124Z,99064
2019-04-06T17:01:29.741Z,99057
2019-04-06T17:04:01.529Z,99063
2019-04-06T17:06:32.213Z,99072
2019-04-06T17:09:01.859Z,99065
2019-04-06T17:11:32.444Z,99069
2019-04-06T17:14:03.233Z,99061
2019-04-06T17:16:36.204Z,99066
2019-04-06T17:19:07.647Z,99056
2019-04-06T17:21:38.991Z,99063
2019-04-06T17:24:10.553Z,99058
2019-04-06T17:26:39.399Z,99066
2019-04-06T17:29:10.227Z,99070
2019-04-06T17:31:40.268Z,99074
2019-04-06T17:34:09.820Z,99074
2019-04-06T17:36:43.031Z,99073
2019-04-06T17:39:17.484Z,99071
2019-04-06T17:41:52.075Z,99073
2019-04-06T17:44:26.660Z,99076
2019-04-06T17:46:59.114Z,99074
2019-04-06T17:49:29.276Z,99068
2019-04-06T17:52:00.882Z,99072
2019-04-06T17:54:30.176Z,99068
2019-04-06T17:56:59.754Z,99070
2019-04-06T17:59:34.944Z,99069
2019-04-06T18:02:03.336Z,99074
2019-04-06T18:04:35.594Z,99068
2019-04-06T18:07:07.513Z,99070
2019-04-06T18:09:37.411Z,99072
2019-04-06T18:12:06.275Z,99072
2019-04-06T18:14:35.157Z,99071
2019-04-06T18:17:04.748Z,99063
2019-04-06T18:19:34.910Z,99063
2019-04-06T18:22:03.192Z,99069
2019-04-06T18:24:32.041Z,99074
2019-04-06T18:27:00.890Z,99071
2019-04-06T18:29:29.893Z,99077
2019-04-06T18:31:59.474Z,99080
2019-04-06T18:34:28.560Z,99080
2019-04-06T18:36:57.200Z,99085
2019-04-06T18:39:26.484Z,99085
2019-04-06T18:41:55.165Z,99085
2019-04-06T18:44:24.085Z,99082
2019-04-06T18:46:53.376Z,99094
2019-04-06T18:49:22.960Z,99096
2019-04-06T18:51:51.806Z,99098
2019-04-06T18:54:20.978Z,99086
2019-04-06T18:56:49.601Z,99084
2019-04-06T18:59:18.400Z,99093
2019-04-06T19:01:47.219Z,99098
2019-04-06T19:04:16.885Z,99093
2019-04-06T19:06:45.651Z,99098
2019-04-06T19:09:22.154Z,99101
2019-04-06T19:11:53.619Z,99106
2019-04-06T19:14:12.998Z,99107
2019-04-06T19:16:42.598Z,99108
2019-04-06T19:19:11.472Z,99109
2019-04-06T19:21:40.309Z,99105
2019-04-06T19:24:09.163Z,99109
2019-04-06T19:26:38.693Z,99106
2019-04-06T19:29:07.080Z,99111
2019-04-06T19:31:35.737Z,99110
2019-04-06T19:34:04.850Z,99122
2019-04-06T19:36:33.453Z,99114
2019-04-06T19:39:02.374Z,99114
2019-04-06T19:41:31.468Z,99111
2019-04-06T19:44:00.103Z,99111
2019-04-06T19:46:29.408Z,99118
2019-04-06T19:48:57.807Z,99109
2019-04-06T19:51:27.162Z,99111
2019-04-06T19:53:55.948Z,99114
2019-04-06T19:56:24.547Z,99109
2019-04-06T19:58:53.179Z,99108
2019-04-06T20:01:22.023Z,99106
2019-04-06T20:03:51.621Z,99105
2019-04-06T20:06:20.475Z,99108
2019-04-06T20:08:49.568Z,99106
2019-04-06T20:11:18.760Z,99097
2019-04-06T20:13:47.091Z,99098
2019-04-06T20:16:16.341Z,99101
2019-04-06T20:18:44.778Z,99108
2019-04-06T20:21:14.361Z,99101
2019-04-06T20:23:43.210Z,99103
2019-04-06T20:26:12.058Z,99101
2019-04-06T20:28:41.119Z,99103
2019-04-06T20:31:09.747Z,99104
2019-04-06T20:33:48.217Z,99097
2019-04-06T20:36:08.196Z,99090
2019-04-06T20:38:37.029Z,99090
2019-04-06T20:41:06.652Z,99085
2019-04-06T20:43:35.663Z,99087
2019-04-06T20:46:05.414Z,99086
2019-04-06T20:48:34.830Z,99072
2019-04-06T20:51:03.694Z,99071
2019-04-06T20:53:33.157Z,99074
2019-04-06T20:56:01.921Z,99069
2019-04-06T20:58:30.249Z,99068
2019-04-06T21:00:59.087Z,99069
2019-04-06T21:03:28.672Z,99075
2019-04-06T21:05:58.510Z,99084
2019-04-06T21:08:27.669Z,99078
2019-04-06T21:10:56.800Z,99072
2019-04-06T21:13:25.374Z,99074
2019-04-06T21:15:55.457Z,99073
2019-04-06T21:18:24.554Z,99067
2019-04-06T21:20:53.401Z,99068
2019-04-06T21:23:22.788Z,99064
2019-04-06T21:25:51.847Z,99067
2019-04-06T21:28:19.955Z,99069
2019-04-06T21:30:49.069Z,99071
2019-04-06T21:33:17.665Z,99073
2019-04-06T21:35:47.332Z,99071
2019-04-06T21:38:15.989Z,99065
2019-04-06T21:40:44.800Z,99073
2019-04-06T21:43:14.499Z,99069
2019-04-06T21:45:43.255Z,99075
2019-04-06T21:48:12.106Z,99064
2019-04-06T21:50:40.933Z,99068
2019-04-06T21:53:09.771Z,99065
2019-04-06T21:55:39.348Z,99071
2019-04-06T21:58:08.800Z,99067
2019-04-06T22:00:40.021Z,99073
2019-04-06T22:03:08.340Z,99076
2019-04-06T22:05:37.241Z,99071
2019-04-06T22:08:06.119Z,99074
2019-04-06T22:10:34.899Z,99074
2019-04-06T22:13:03.899Z,99066
2019-04-06T22:15:33.160Z,99071
2019-04-06T22:18:02.873Z,99075
2019-04-06T22:20:31.570Z,99076
2019-04-06T22:23:00.447Z,99075
2019-04-06T22:25:30.038Z,99082
2019-04-06T22:27:59.642Z,99080
2019-04-06T22:30:28.895Z,99075
2019-04-06T22:32:57.387Z,99076
2019-04-06T22:35:26.246Z,99070
2019-04-06T22:37:56.114Z,99069
2019-04-06T22:40:23.923Z,99074
2019-04-06T22:42:52.787Z,99069
2019-04-06T22:45:21.683Z,99065
2019-04-06T22:47:50.817Z,99053
2019-04-06T22:50:19.913Z,99056
2019-04-06T22:52:48.188Z,99060
2019-04-06T22:55:17.668Z,99061
2019-04-06T22:57:45.868Z,99071
2019-04-06T23:00:16.818Z,99066
2019-04-06T23:02:49.038Z,99065
2019-04-06T23:05:17.840Z,99064
2019-04-06T23:07:46.777Z,99070
2019-04-06T23:10:15.815Z,99073
2019-04-06T23:12:44.841Z,99082
2019-04-06T23:15:13.236Z,99073
2019-04-06T23:17:42.122Z,99074
2019-04-06T23:20:11.664Z,99078
2019-04-06T23:22:41.266Z,99074
2019-04-06T23:25:10.585Z,99071
2019-04-06T23:27:38.952Z,99074
2019-04-06T23:30:08.822Z,99073
2019-04-06T23:32:38.248Z,99070
2019-04-06T23:35:08.178Z,99066
2019-04-06T23:37:36.692Z,99070
2019-04-06T23:40:05.618Z,99064
2019-04-06T23:42:34.414Z,99063
2019-04-06T23:45:03.572Z,99059
2019-04-06T23:47:32.400Z,99064
2019-04-06T23:50:00.942Z,99064
2019-04-06T23:52:29.782Z,99064
2019-04-06T23:54:58.868Z,99063
2019-04-06T23:57:27.486Z,99068
2019-04-06T23:59:57.078Z,99068
